METAR Data
IDs: Format: Raw Decoded Include TAF

Data at: 2125 UTC 01 Dec 2021

LEAB 012100Z 26014KT 9999 BKN030 09/05 Q1014 NOSIG